createdAt,value
2022-10-22T00:08:37.990Z,8.55
2022-10-22T00:18:40.747Z,8.87
2022-10-22T00:28:42.470Z,8.80
2022-10-22T00:38:44.184Z,8.25
2022-10-22T00:48:45.865Z,8.32
2022-10-22T00:58:53.666Z,8.85
2022-10-22T01:09:09.589Z,7.80
2022-10-22T01:19:41.280Z,7.50
2022-10-22T01:29:49.601Z,8.63
2022-10-22T01:39:53.109Z,7.65
2022-10-22T02:00:10.889Z,7.70
2022-10-22T02:10:15.110Z,7.75
2022-10-22T02:20:22.135Z,7.90
2022-10-22T02:30:23.856Z,8.60
2022-10-22T02:40:26.390Z,8.52
2022-10-22T02:50:27.984Z,8.60
2022-10-22T03:00:30.317Z,9.32
2022-10-22T03:10:32.494Z,8.93
2022-10-22T03:20:34.035Z,9.30
2022-10-22T03:30:35.776Z,9.40
2022-10-22T03:40:42.544Z,9.45
2022-10-22T03:50:44.161Z,9.95
2022-10-22T04:00:47.490Z,11.40
2022-10-22T04:10:52.412Z,10.18
2022-10-22T04:20:54.615Z,10.45
2022-10-22T04:30:56.507Z,11.88
2022-10-22T04:40:58.160Z,10.93
2022-10-22T04:51:00.873Z,11.57
2022-10-22T05:01:09.903Z,11.87
2022-10-22T05:11:20.843Z,12.82
2022-10-22T05:21:22.569Z,12.15
2022-10-22T05:31:24.514Z,12.55
2022-10-22T05:41:27.356Z,11.05
2022-10-22T05:51:32.015Z,12.27
2022-10-22T06:01:37.936Z,11.32
2022-10-22T06:11:39.580Z,12.20
2022-10-22T06:21:43.679Z,11.57
2022-10-22T06:31:45.376Z,15.98
2022-10-22T06:41:47.220Z,11.60
2022-10-22T06:51:53.752Z,11.38
2022-10-22T07:01:55.289Z,11.35
2022-10-22T07:11:57.049Z,11.55
2022-10-22T07:22:00.240Z,11.25
2022-10-22T07:42:04.457Z,12.65
2022-10-22T07:52:07.897Z,10.32
2022-10-22T08:02:11.429Z,10.68
2022-10-22T08:12:13.083Z,10.45
2022-10-22T08:22:16.673Z,10.63
2022-10-22T08:32:18.393Z,10.02
2022-10-22T08:42:26.366Z,10.57
2022-10-22T08:52:30.959Z,11.23
2022-10-22T09:02:59.292Z,10.90
2022-10-22T09:13:01.169Z,10.82
2022-10-22T09:23:22.231Z,16.43
2022-10-22T09:33:31.816Z,12.80
2022-10-22T09:43:35.138Z,12.02
2022-10-22T09:53:41.671Z,16.40
2022-10-22T10:03:43.266Z,12.05
2022-10-22T10:13:57.239Z,12.00
2022-10-22T10:24:18.150Z,12.75
2022-10-22T10:34:32.039Z,13.13
2022-10-22T10:45:00.988Z,13.27
2022-10-22T10:55:04.558Z,13.50
2022-10-22T11:05:31.157Z,12.45
2022-10-22T11:15:37.304Z,12.18
2022-10-22T11:25:44.643Z,12.65
2022-10-22T11:35:48.007Z,12.73
2022-10-22T11:45:50.587Z,12.93
2022-10-22T11:55:55.533Z,12.80
2022-10-22T12:06:12.489Z,12.40
2022-10-22T12:16:14.942Z,13.40
2022-10-22T12:36:35.282Z,14.32
2022-10-22T12:46:37.055Z,13.50
2022-10-22T12:56:38.783Z,14.43
2022-10-22T13:06:45.415Z,15.10
2022-10-22T13:17:05.716Z,13.40
2022-10-22T13:27:09.582Z,14.27
2022-10-22T13:37:14.320Z,20.75
2022-10-22T13:47:34.269Z,14.73
2022-10-22T13:57:35.835Z,15.88
2022-10-22T14:07:39.648Z,15.30
2022-10-22T14:17:44.677Z,16.33
2022-10-22T14:27:48.125Z,14.77
2022-10-22T14:37:51.241Z,15.20
2022-10-22T14:47:57.516Z,15.45
2022-10-22T14:57:59.288Z,17.60
2022-10-22T15:08:02.131Z,18.40
2022-10-22T15:18:06.833Z,12.15
2022-10-22T15:28:10.039Z,12.13
2022-10-22T15:38:11.829Z,12.70
2022-10-22T15:48:15.449Z,12.43
2022-10-22T15:58:17.360Z,14.38
2022-10-22T16:08:20.016Z,14.73
2022-10-22T16:18:22.000Z,16.35
2022-10-22T16:28:23.843Z,17.20
2022-10-22T16:38:29.258Z,21.73
2022-10-22T16:48:34.184Z,20.08
2022-10-22T16:58:37.383Z,21.27
2022-10-22T17:08:40.597Z,22.13
2022-10-22T17:28:47.709Z,21.27
2022-10-22T17:38:54.645Z,24.02
2022-10-22T17:49:03.718Z,24.00
2022-10-22T17:59:08.346Z,24.00
2022-10-22T18:09:14.523Z,24.38
2022-10-22T18:19:24.332Z,27.55
2022-10-22T18:29:26.086Z,31.52
2022-10-22T18:39:28.548Z,29.67
2022-10-22T18:49:30.812Z,28.60
2022-10-22T18:59:32.906Z,28.27
2022-10-22T19:09:35.131Z,28.33
2022-10-22T19:19:36.931Z,29.33
2022-10-22T19:29:40.069Z,28.48
2022-10-22T19:39:43.263Z,29.35
2022-10-22T19:49:45.370Z,30.30
2022-10-22T19:59:48.925Z,32.83
2022-10-22T20:09:54.425Z,34.47
2022-10-22T20:19:57.674Z,33.38
2022-10-22T20:30:00.607Z,33.33
2022-10-22T20:40:03.556Z,34.45
2022-10-22T20:50:05.534Z,36.97
2022-10-22T21:00:08.190Z,34.97
2022-10-22T21:10:11.174Z,39.03
2022-10-22T21:20:15.035Z,39.78
2022-10-22T21:30:18.301Z,43.22
2022-10-22T21:40:20.075Z,42.15
2022-10-22T21:50:21.696Z,44.75
2022-10-22T22:00:24.305Z,43.30
2022-10-22T22:10:28.054Z,44.33
2022-10-22T22:20:31.716Z,43.25
2022-10-22T22:30:33.549Z,47.35
2022-10-22T22:40:38.839Z,45.08
2022-10-22T22:50:44.690Z,46.72
2022-10-22T23:00:47.218Z,44.55
2022-10-22T23:10:49.825Z,48.25
2022-10-22T23:20:52.265Z,43.83
2022-10-22T23:30:53.922Z,48.47
2022-10-22T23:40:57.054Z,50.88
2022-10-22T23:51:10.555Z,47.15
